createdAt,value
2022-08-05T00:01:48.469Z,20.32
2022-08-05T00:04:55.377Z,20.36
2022-08-05T00:08:00.410Z,20.46
2022-08-05T00:11:05.325Z,20.54
2022-08-05T00:14:21.947Z,20.60
2022-08-05T00:17:29.877Z,20.61
2022-08-05T00:20:31.416Z,20.59
2022-08-05T00:23:46.365Z,20.56
2022-08-05T00:26:50.881Z,20.55
2022-08-05T00:29:53.719Z,20.59
2022-08-05T00:32:57.839Z,20.55
2022-08-05T00:36:15.234Z,20.37
2022-08-05T00:39:20.836Z,20.25
2022-08-05T00:42:33.848Z,20.02
2022-08-05T00:45:42.762Z,19.94
2022-08-05T00:48:51.426Z,19.93
2022-08-05T00:51:53.069Z,19.95
2022-08-05T00:54:54.648Z,19.96
2022-08-05T00:57:58.935Z,19.95
2022-08-05T01:01:00.863Z,19.90
2022-08-05T01:04:03.155Z,19.87
2022-08-05T01:07:15.119Z,19.95
2022-08-05T01:10:21.218Z,19.96
2022-08-05T01:13:58.765Z,19.93
2022-08-05T01:17:17.637Z,19.92
2022-08-05T01:20:48.787Z,19.97
2022-08-05T01:24:23.490Z,19.83
2022-08-05T01:27:55.476Z,19.80
2022-08-05T01:31:03.007Z,19.85
2022-08-05T01:34:15.891Z,19.86
2022-08-05T01:37:25.113Z,19.81
2022-08-05T01:40:29.447Z,19.79
2022-08-05T01:43:31.020Z,19.81
2022-08-05T01:46:42.868Z,19.91
2022-08-05T01:50:01.585Z,19.91
2022-08-05T01:53:06.971Z,19.89
2022-08-05T01:56:09.392Z,19.71
2022-08-05T01:59:13.106Z,19.70
2022-08-05T02:02:15.822Z,19.78
2022-08-05T02:05:17.961Z,19.86
2022-08-05T02:08:29.677Z,19.66
2022-08-05T02:11:52.489Z,19.57
2022-08-05T02:15:03.010Z,19.50
2022-08-05T02:18:32.235Z,19.51
2022-08-05T02:21:42.928Z,19.54
2022-08-05T02:24:48.196Z,19.62
2022-08-05T02:27:58.213Z,19.62
2022-08-05T02:31:22.395Z,19.62
2022-08-05T02:34:24.149Z,19.80
2022-08-05T02:37:32.050Z,19.92
2022-08-05T02:40:33.607Z,19.93
2022-08-05T02:43:35.203Z,19.90
2022-08-05T02:46:59.816Z,19.80
2022-08-05T02:50:03.101Z,19.67
2022-08-05T02:53:04.592Z,19.57
2022-08-05T02:56:06.653Z,19.48
2022-08-05T02:59:08.423Z,19.41
2022-08-05T03:02:10.028Z,19.47
2022-08-05T03:05:12.625Z,19.52
2022-08-05T03:08:14.814Z,19.57
2022-08-05T03:11:53.699Z,19.66
2022-08-05T03:14:45.737Z,19.60
2022-08-05T03:17:47.719Z,19.55
2022-08-05T03:20:55.449Z,19.54
2022-08-05T03:23:56.940Z,19.64
2022-08-05T03:26:59.414Z,19.60
2022-08-05T03:30:08.692Z,19.71
2022-08-05T03:33:10.636Z,19.82
2022-08-05T03:36:12.347Z,19.87
2022-08-05T03:39:26.802Z,19.87
2022-08-05T03:42:32.919Z,19.85
2022-08-05T03:45:55.153Z,19.83
2022-08-05T03:48:59.894Z,19.89
2022-08-05T03:52:48.289Z,19.92
2022-08-05T03:56:01.330Z,19.89
2022-08-05T03:58:50.693Z,19.83
2022-08-05T04:01:52.836Z,19.82
2022-08-05T04:05:00.398Z,19.91
2022-08-05T04:08:14.614Z,19.99
2022-08-05T04:11:50.651Z,19.98
2022-08-05T04:14:49.410Z,19.95
2022-08-05T04:17:56.160Z,20.03
2022-08-05T04:20:59.113Z,20.17
2022-08-05T04:24:06.393Z,20.15
2022-08-05T04:27:10.441Z,20.16
2022-08-05T04:30:12.039Z,20.21
2022-08-05T04:33:13.659Z,20.26
2022-08-05T04:36:38.550Z,20.29
2022-08-05T04:39:37.246Z,20.23
2022-08-05T04:42:38.753Z,20.28
2022-08-05T04:45:48.607Z,20.38
2022-08-05T04:48:51.582Z,20.61
2022-08-05T04:52:00.251Z,20.79
2022-08-05T04:55:02.379Z,21.33
2022-08-05T04:58:20.161Z,21.78
2022-08-05T05:02:06.263Z,21.92
2022-08-05T05:04:49.725Z,22.07
2022-08-05T05:07:56.239Z,22.15
2022-08-05T05:11:02.327Z,22.19
2022-08-05T05:14:03.861Z,22.20
2022-08-05T05:17:07.502Z,22.15
2022-08-05T05:20:12.292Z,22.19
2022-08-05T05:23:19.722Z,22.18
2022-08-05T05:26:28.582Z,22.17
2022-08-05T05:29:40.963Z,22.22
2022-08-05T05:32:56.125Z,22.24
2022-08-05T05:35:57.678Z,22.28
2022-08-05T05:38:59.342Z,22.30
2022-08-05T05:42:01.621Z,22.35
2022-08-05T05:45:03.230Z,22.46
2022-08-05T05:48:08.281Z,22.53
2022-08-05T05:51:15.189Z,22.59
2022-08-05T05:54:17.467Z,22.55
2022-08-05T05:57:21.237Z,22.64
2022-08-05T06:00:27.727Z,22.67
2022-08-05T06:03:54.068Z,22.84
2022-08-05T06:06:54.816Z,22.99
2022-08-05T06:10:01.480Z,23.07
2022-08-05T06:13:07.739Z,23.17
2022-08-05T06:16:29.970Z,23.16
2022-08-05T06:19:34.647Z,23.23
2022-08-05T06:22:37.081Z,23.38
2022-08-05T06:26:00.115Z,23.42
2022-08-05T06:29:06.996Z,23.39
2022-08-05T06:32:29.252Z,23.36
2022-08-05T06:36:08.169Z,23.31
2022-08-05T06:38:54.608Z,23.35
2022-08-05T06:41:58.602Z,23.45
2022-08-05T06:45:00.262Z,23.54
2022-08-05T06:48:36.112Z,23.59
2022-08-05T06:51:29.960Z,23.73
2022-08-05T06:54:32.105Z,23.98
2022-08-05T06:57:57.131Z,24.24
2022-08-05T07:00:55.214Z,24.40
2022-08-05T07:03:56.748Z,24.40
2022-08-05T07:06:58.405Z,24.41
2022-08-05T07:10:03.351Z,24.45
2022-08-05T07:13:57.161Z,24.33
2022-08-05T07:18:00.691Z,24.26
2022-08-05T07:23:34.535Z,24.42
2022-08-05T07:26:42.025Z,24.52
2022-08-05T07:30:22.902Z,24.47
2022-08-05T07:33:10.026Z,24.47
2022-08-05T07:36:20.227Z,24.58
2022-08-05T07:40:03.691Z,24.87
2022-08-05T07:42:44.281Z,24.92
2022-08-05T07:45:57.214Z,24.93
2022-08-05T07:49:04.980Z,24.84
2022-08-05T07:52:07.187Z,24.90
2022-08-05T07:55:44.334Z,24.93
2022-08-05T07:58:57.363Z,25.13
2022-08-05T08:01:57.531Z,25.04
2022-08-05T08:04:59.606Z,25.12
2022-08-05T08:08:02.040Z,25.19
2022-08-05T08:11:03.519Z,25.32
2022-08-05T08:14:10.333Z,25.40
2022-08-05T08:17:19.859Z,25.54
2022-08-05T08:20:43.279Z,25.53
2022-08-05T08:24:01.846Z,25.79
2022-08-05T08:27:07.078Z,26.18
2022-08-05T08:30:30.074Z,26.40
2022-08-05T08:33:36.124Z,26.32
2022-08-05T08:36:47.611Z,26.71
2022-08-05T08:39:56.517Z,27.10
2022-08-05T08:42:58.368Z,27.13
2022-08-05T08:46:19.712Z,27.82
2022-08-05T08:50:14.664Z,27.80
2022-08-05T08:52:43.460Z,28.01
2022-08-05T08:56:02.813Z,28.01
2022-08-05T08:59:14.709Z,28.19
2022-08-05T09:02:20.945Z,28.13
2022-08-05T09:05:38.767Z,28.16
2022-08-05T09:08:47.327Z,27.93
2022-08-05T09:11:51.371Z,28.07
2022-08-05T09:15:03.943Z,28.23
2022-08-05T09:18:08.998Z,28.41
2022-08-05T09:21:11.427Z,28.57
2022-08-05T09:24:13.674Z,28.80
2022-08-05T09:28:04.345Z,28.85
2022-08-05T09:30:53.255Z,28.84
2022-08-05T09:33:58.409Z,29.15
2022-08-05T09:37:00.130Z,28.97
2022-08-05T09:40:01.837Z,29.61
2022-08-05T09:43:08.477Z,30.55
2022-08-05T09:46:27.804Z,30.31
2022-08-05T09:50:00.780Z,30.00
2022-08-05T09:52:52.791Z,29.73
2022-08-05T09:56:04.991Z,30.07
2022-08-05T09:59:17.281Z,30.02
2022-08-05T10:02:31.441Z,29.42
2022-08-05T10:05:33.511Z,29.27
2022-08-05T10:08:38.151Z,29.57
2022-08-05T10:11:40.333Z,29.66
2022-08-05T10:14:43.334Z,29.79
2022-08-05T10:18:12.475Z,30.03
2022-08-05T10:21:16.344Z,30.59
2022-08-05T10:24:18.463Z,30.53
2022-08-05T10:27:20.232Z,30.08
2022-08-05T10:32:46.895Z,30.35
2022-08-05T10:33:52.263Z,30.22
2022-08-05T10:36:55.906Z,30.27
2022-08-05T10:40:16.938Z,30.09
2022-08-05T10:43:31.046Z,29.81
2022-08-05T10:46:55.053Z,29.81
2022-08-05T10:50:20.526Z,29.52
2022-08-05T10:53:56.193Z,29.71
2022-08-05T10:57:00.077Z,29.85
2022-08-05T11:00:19.751Z,29.58
2022-08-05T11:03:23.193Z,29.42
2022-08-05T11:06:30.805Z,29.79
2022-08-05T11:09:46.950Z,29.35
2022-08-05T11:12:50.728Z,29.66
2022-08-05T11:16:21.582Z,29.95
2022-08-05T11:20:17.127Z,30.14
2022-08-05T11:22:54.128Z,30.41
2022-08-05T11:26:09.238Z,29.84
2022-08-05T11:29:34.626Z,29.50
2022-08-05T11:32:36.114Z,29.64
2022-08-05T11:36:04.461Z,29.72
2022-08-05T11:39:10.307Z,29.87
2022-08-05T11:42:11.994Z,29.76
2022-08-05T11:45:26.956Z,30.43
2022-08-05T11:48:41.933Z,30.76
2022-08-05T11:51:49.770Z,30.77
2022-08-05T11:54:54.791Z,30.75
2022-08-05T11:58:08.290Z,30.41
2022-08-05T12:01:19.014Z,30.66
2022-08-05T12:04:21.046Z,30.28
2022-08-05T12:08:03.491Z,30.99
2022-08-05T12:10:46.574Z,30.48
2022-08-05T12:13:58.597Z,30.17
2022-08-05T12:17:01.542Z,30.17
2022-08-05T12:20:26.248Z,30.35
2022-08-05T12:23:25.193Z,29.99
2022-08-05T12:26:39.424Z,29.76
2022-08-05T12:29:45.457Z,29.71
2022-08-05T12:32:58.716Z,29.64
2022-08-05T12:36:09.582Z,29.50
2022-08-05T12:39:11.339Z,29.57
2022-08-05T12:42:14.484Z,29.56
2022-08-05T12:45:18.475Z,29.86
2022-08-05T12:48:27.121Z,29.61
2022-08-05T12:52:10.156Z,29.64
2022-08-05T12:55:22.286Z,29.88
2022-08-05T12:58:38.941Z,29.81
2022-08-05T13:02:01.452Z,29.79
2022-08-05T13:05:07.696Z,29.82
2022-08-05T13:08:09.238Z,29.21
2022-08-05T13:11:17.320Z,29.38
2022-08-05T13:14:40.312Z,29.86
2022-08-05T13:17:56.019Z,29.72
2022-08-05T13:21:00.901Z,29.35
2022-08-05T13:24:02.434Z,29.48
2022-08-05T13:27:05.984Z,29.42
2022-08-05T13:30:34.893Z,28.99
2022-08-05T13:34:22.397Z,29.33
2022-08-05T13:37:00.184Z,29.57
2022-08-05T13:40:16.107Z,29.96
2022-08-05T13:43:22.037Z,29.86
2022-08-05T13:46:50.678Z,30.11
2022-08-05T13:49:46.589Z,29.92
2022-08-05T13:52:50.235Z,29.78
2022-08-05T13:56:00.163Z,29.76
2022-08-05T13:59:05.979Z,29.23
2022-08-05T14:02:20.867Z,29.25
2022-08-05T14:05:29.373Z,29.28
2022-08-05T14:08:49.885Z,28.66
2022-08-05T14:12:04.199Z,28.47
2022-08-05T14:16:06.854Z,28.69
2022-08-05T14:18:34.392Z,28.76
2022-08-05T14:22:09.178Z,28.52
2022-08-05T14:25:01.645Z,28.41
2022-08-05T14:28:03.318Z,28.33
2022-08-05T14:31:05.093Z,27.78
2022-08-05T14:34:18.814Z,27.71
2022-08-05T14:37:48.128Z,27.49
2022-08-05T14:40:47.089Z,27.30
2022-08-05T14:44:00.122Z,27.21
2022-08-05T14:47:07.196Z,27.28
2022-08-05T14:50:17.783Z,27.39
2022-08-05T14:53:20.139Z,27.09
2022-08-05T14:56:23.408Z,27.07
2022-08-05T14:59:29.405Z,27.05
2022-08-05T15:02:36.809Z,27.11
2022-08-05T15:06:08.097Z,26.83
2022-08-05T15:09:03.846Z,26.92
2022-08-05T15:12:06.035Z,26.98
2022-08-05T15:15:15.426Z,26.76
2022-08-05T15:18:17.466Z,26.74
2022-08-05T15:21:20.968Z,26.68
2022-08-05T15:24:22.701Z,26.55
2022-08-05T15:27:25.482Z,26.21
2022-08-05T15:30:28.552Z,26.21
2022-08-05T15:34:04.355Z,26.39
2022-08-05T15:36:51.359Z,26.61
2022-08-05T15:41:02.072Z,26.76
2022-08-05T15:43:20.518Z,26.39
2022-08-05T15:46:24.212Z,26.57
2022-08-05T15:49:48.105Z,26.69
2022-08-05T15:52:53.714Z,26.62
2022-08-05T15:56:02.116Z,26.73
2022-08-05T15:59:05.918Z,26.35
2022-08-05T16:02:09.670Z,26.30
2022-08-05T16:05:15.845Z,26.04
2022-08-05T16:08:17.337Z,25.92
2022-08-05T16:11:40.095Z,25.89
2022-08-05T16:14:42.332Z,25.83
2022-08-05T16:17:46.091Z,25.91
2022-08-05T16:21:01.260Z,25.88
2022-08-05T16:24:06.421Z,25.84
2022-08-05T16:27:15.987Z,25.80
2022-08-05T16:30:25.667Z,25.67
2022-08-05T16:33:41.807Z,25.65
2022-08-05T16:36:43.473Z,25.33
2022-08-05T16:40:06.309Z,25.42
2022-08-05T16:43:06.806Z,25.42
2022-08-05T16:46:23.988Z,25.49
2022-08-05T16:49:26.512Z,25.47
2022-08-05T16:52:32.729Z,25.47
2022-08-05T16:55:46.854Z,25.29
2022-08-05T16:58:48.818Z,25.20
2022-08-05T17:01:52.983Z,25.18
2022-08-05T17:04:55.980Z,25.14
2022-08-05T17:07:57.469Z,25.07
2022-08-05T17:10:58.944Z,25.04
2022-08-05T17:14:06.052Z,25.07
2022-08-05T17:17:14.393Z,25.09
2022-08-05T17:20:16.869Z,24.95
2022-08-05T17:24:02.953Z,24.98
2022-08-05T17:26:40.908Z,24.95
2022-08-05T17:29:42.520Z,24.92
2022-08-05T17:32:43.859Z,24.83
2022-08-05T17:36:07.486Z,24.75
2022-08-05T17:39:24.543Z,24.66
2022-08-05T17:42:32.342Z,24.65
2022-08-05T17:45:38.465Z,24.63
2022-08-05T17:48:40.439Z,24.62
2022-08-05T17:51:46.357Z,24.62
2022-08-05T17:54:51.599Z,24.58
2022-08-05T17:57:53.096Z,24.57
2022-08-05T18:00:54.581Z,24.56
2022-08-05T18:04:04.389Z,24.54
2022-08-05T18:07:07.617Z,24.58
2022-08-05T18:10:21.072Z,24.51
2022-08-05T18:13:23.025Z,24.52
2022-08-05T18:16:27.352Z,24.46
2022-08-05T18:19:28.938Z,24.44
2022-08-05T18:22:36.327Z,24.41
2022-08-05T18:25:57.804Z,24.37
2022-08-05T18:29:01.162Z,24.31
2022-08-05T18:32:03.006Z,24.31
2022-08-05T18:35:05.178Z,24.29
2022-08-05T18:38:07.506Z,24.27
2022-08-05T18:41:55.881Z,24.25
2022-08-05T18:44:35.143Z,24.24
2022-08-05T18:47:37.979Z,24.23
2022-08-05T18:52:03.179Z,24.20
2022-08-05T18:54:19.548Z,24.23
2022-08-05T18:57:24.007Z,24.24
2022-08-05T19:00:29.400Z,24.13
2022-08-05T19:03:53.036Z,24.05
2022-08-05T19:06:53.521Z,24.01
2022-08-05T19:09:55.668Z,23.95
2022-08-05T19:12:57.280Z,23.86
2022-08-05T19:16:03.847Z,23.81
2022-08-05T19:19:05.512Z,23.72
2022-08-05T19:22:06.896Z,23.67
2022-08-05T19:25:10.159Z,23.58
2022-08-05T19:28:23.300Z,23.46
2022-08-05T19:31:26.196Z,23.38
2022-08-05T19:34:35.175Z,23.29
2022-08-05T19:38:04.264Z,23.20
2022-08-05T19:40:58.059Z,23.11
2022-08-05T19:44:13.718Z,22.96
2022-08-05T19:47:16.407Z,22.71
2022-08-05T19:50:19.913Z,22.54
2022-08-05T19:54:05.304Z,22.41
2022-08-05T19:56:42.856Z,22.31
2022-08-05T20:00:00.938Z,22.30
2022-08-05T20:03:08.481Z,22.29
2022-08-05T20:06:15.430Z,22.22
2022-08-05T20:09:17.289Z,22.13
2022-08-05T20:12:18.792Z,22.07
2022-08-05T20:15:48.406Z,22.07
2022-08-05T20:18:42.497Z,21.99
2022-08-05T20:21:46.517Z,22.00
2022-08-05T20:24:48.037Z,21.98
2022-08-05T20:27:50.443Z,21.99
2022-08-05T20:30:51.939Z,22.03
2022-08-05T20:33:53.442Z,22.05
2022-08-05T20:36:55.431Z,22.05
2022-08-05T20:39:58.353Z,22.08
2022-08-05T20:43:00.264Z,21.98
2022-08-05T20:46:01.862Z,21.94
2022-08-05T20:49:03.752Z,21.85
2022-08-05T20:52:08.417Z,21.82
2022-08-05T20:56:02.763Z,21.79
2022-08-05T20:58:31.435Z,21.77
2022-08-05T21:01:38.616Z,21.61
2022-08-05T21:04:40.651Z,21.49
2022-08-05T21:07:45.691Z,21.33
2022-08-05T21:10:52.573Z,21.27
2022-08-05T21:13:56.699Z,21.23
2022-08-05T21:16:58.495Z,21.13
2022-08-05T21:20:02.090Z,21.06
2022-08-05T21:23:07.680Z,21.08
2022-08-05T21:26:12.334Z,21.02
2022-08-05T21:29:16.729Z,21.07
2022-08-05T21:32:20.081Z,20.88
2022-08-05T21:35:29.730Z,20.85
2022-08-05T21:38:44.189Z,20.73
2022-08-05T21:41:52.578Z,20.73
2022-08-05T21:44:54.480Z,20.79
2022-08-05T21:47:58.250Z,20.76
2022-08-05T21:50:59.748Z,20.74
2022-08-05T21:54:04.068Z,20.62
2022-08-05T21:57:29.903Z,20.65
2022-08-05T22:00:27.335Z,20.61
2022-08-05T22:03:51.710Z,20.54
2022-08-05T22:06:50.375Z,20.50
2022-08-05T22:09:52.113Z,20.47
2022-08-05T22:12:58.821Z,20.41
2022-08-05T22:16:11.444Z,20.37
2022-08-05T22:20:00.357Z,20.37
2022-08-05T22:23:02.534Z,20.40
2022-08-05T22:26:37.016Z,20.34
2022-08-05T22:29:38.560Z,20.25
2022-08-05T22:32:42.601Z,20.26
2022-08-05T22:35:49.160Z,20.23
2022-08-05T22:38:50.994Z,20.28
2022-08-05T22:42:10.198Z,20.36
2022-08-05T22:45:13.964Z,20.26
2022-08-05T22:48:15.623Z,20.41
2022-08-05T22:52:02.581Z,20.52
2022-08-05T22:54:48.775Z,20.39
2022-08-05T22:57:51.016Z,20.38
2022-08-05T23:00:52.502Z,20.52
2022-08-05T23:03:59.635Z,20.50
2022-08-05T23:07:01.518Z,20.40
2022-08-05T23:10:03.554Z,20.36
2022-08-05T23:13:05.050Z,20.46
2022-08-05T23:16:06.571Z,20.46
2022-08-05T23:19:10.146Z,20.53
2022-08-05T23:22:28.800Z,20.57
2022-08-05T23:25:52.099Z,20.62
2022-08-05T23:28:51.898Z,20.61
2022-08-05T23:31:55.593Z,20.57
2022-08-05T23:34:57.938Z,20.50
2022-08-05T23:38:00.106Z,20.49
2022-08-05T23:41:02.341Z,20.48
2022-08-05T23:44:06.410Z,20.52
2022-08-05T23:47:14.321Z,20.40
2022-08-05T23:50:20.009Z,20.39
2022-08-05T23:53:22.809Z,20.36
2022-08-05T23:56:27.354Z,20.29
